Y91 weather

Home Acres Sky Ranch Airport
Lake City, Michigan, United States

Public forecast

Using degrees Fahrenheit for public forecast. Weather courtesy of forecast.io.

Closest aviation weather report (METAR) to Home Acres Sky Ranch Airport

Closest report is Wexford County Airport, 11.0 nm (20.3 km) WSW. Retrieved 2019/10/14 13:37 UTC (0 seconds ago):

KCAD 141337Z AUTO 24009KT 10SM SCT050 05/03 A2993 RMK AO2 T00470033

Closest aviation forecast (TAF) to Home Acres Sky Ranch Airport

Closest forecast is Cherry Capital Airport, 30.8 nm (57.0 km) NW. Retrieved 2019/10/14 12:22 UTC (41 minutes ago):

TAF KTVC 141120Z 1412/1512 24008KT P6SM BKN045 TEMPO 1412/1416 BKN035 FM141600 27010G18KT P6SM BKN035 FM142000 25010KT P6SM SCT040 FM150100 VRB03KT P6SM SCT050 FM150500 VRB03KT P6SM FEW250